createdAt,value
2022-08-29T00:00:47.640Z,8.18
2022-08-29T00:03:14.308Z,8.93
2022-08-29T00:05:42.494Z,8.90
2022-08-29T00:08:09.398Z,7.97
2022-08-29T00:10:37.787Z,8.00
2022-08-29T00:13:07.554Z,8.43
2022-08-29T00:15:41.684Z,8.70
2022-08-29T00:18:13.706Z,10.07
2022-08-29T00:20:41.078Z,9.32
2022-08-29T00:23:10.059Z,9.98
2022-08-29T00:25:37.195Z,8.90
2022-08-29T00:28:04.770Z,8.50
2022-08-29T00:30:32.360Z,8.85
2022-08-29T00:32:59.280Z,8.48
2022-08-29T00:35:33.318Z,9.38
2022-08-29T00:38:01.219Z,9.23
2022-08-29T00:40:35.855Z,9.32
2022-08-29T00:43:02.630Z,9.00
2022-08-29T00:45:30.453Z,8.77
2022-08-29T00:48:10.363Z,9.30
2022-08-29T00:50:43.554Z,9.60
2022-08-29T00:53:14.227Z,9.60
2022-08-29T00:55:41.787Z,9.38
2022-08-29T00:58:14.490Z,9.60
2022-08-29T01:00:43.575Z,10.00
2022-08-29T01:03:10.301Z,9.15
2022-08-29T01:05:37.653Z,9.27
2022-08-29T01:08:05.963Z,9.48
2022-08-29T01:10:53.076Z,9.90
2022-08-29T01:13:22.280Z,9.07
2022-08-29T01:15:49.218Z,9.80
2022-08-29T01:18:17.936Z,9.60
2022-08-29T01:20:58.025Z,10.10
2022-08-29T01:23:43.865Z,9.73
2022-08-29T01:26:12.564Z,9.35
2022-08-29T01:28:44.432Z,9.95
2022-08-29T01:31:11.770Z,8.40
2022-08-29T01:33:44.071Z,8.80
2022-08-29T01:36:14.774Z,8.63
2022-08-29T01:38:42.517Z,8.98
2022-08-29T01:41:10.744Z,9.25
2022-08-29T01:43:44.661Z,9.30
2022-08-29T01:46:14.767Z,8.13
2022-08-29T01:48:44.040Z,8.75
2022-08-29T01:51:12.284Z,8.48
2022-08-29T01:53:39.316Z,8.15
2022-08-29T01:56:15.151Z,9.32
2022-08-29T01:58:43.635Z,9.55
2022-08-29T02:01:12.139Z,9.75
2022-08-29T02:03:38.934Z,9.85
2022-08-29T02:06:06.388Z,9.57
2022-08-29T02:08:33.100Z,9.35
2022-08-29T02:10:59.947Z,9.05
2022-08-29T02:13:26.599Z,8.57
2022-08-29T02:15:53.387Z,9.82
2022-08-29T02:18:20.410Z,9.43
2022-08-29T02:20:47.552Z,9.55
2022-08-29T02:23:30.224Z,10.30
2022-08-29T02:25:57.676Z,10.32
2022-08-29T02:28:24.486Z,10.55
2022-08-29T02:30:55.783Z,10.32
2022-08-29T02:33:24.251Z,10.23
2022-08-29T02:35:52.243Z,10.85
2022-08-29T02:38:20.319Z,10.68
2022-08-29T02:40:48.692Z,11.25
2022-08-29T02:43:18.102Z,10.70
2022-08-29T02:45:46.300Z,10.52
2022-08-29T02:48:14.030Z,11.25
2022-08-29T02:50:46.513Z,10.65
2022-08-29T02:53:15.299Z,10.68
2022-08-29T02:55:42.234Z,10.15
2022-08-29T02:58:09.059Z,10.35
2022-08-29T03:00:36.861Z,10.38
2022-08-29T03:03:04.790Z,10.70
2022-08-29T03:05:35.131Z,11.07
2022-08-29T03:08:05.199Z,10.13
2022-08-29T03:10:32.289Z,10.35
2022-08-29T03:12:59.550Z,10.13
2022-08-29T03:15:27.077Z,9.40
2022-08-29T03:17:54.763Z,9.27
2022-08-29T03:20:27.203Z,9.57
2022-08-29T03:22:54.762Z,9.20
2022-08-29T03:25:23.375Z,9.07
2022-08-29T03:27:50.123Z,10.00
2022-08-29T03:30:18.316Z,10.45
2022-08-29T03:32:46.210Z,10.10
2022-08-29T03:35:14.095Z,9.57
2022-08-29T03:37:40.999Z,10.25
2022-08-29T03:40:09.431Z,9.50
2022-08-29T03:42:36.381Z,10.57
2022-08-29T03:45:05.827Z,10.23
2022-08-29T03:47:32.481Z,8.88
2022-08-29T03:49:59.420Z,9.15
2022-08-29T03:52:26.548Z,9.00
2022-08-29T03:54:53.381Z,9.20
2022-08-29T03:57:20.539Z,9.73
2022-08-29T03:59:48.334Z,9.18
2022-08-29T04:02:20.790Z,8.57
2022-08-29T04:05:08.266Z,8.70
2022-08-29T04:07:45.543Z,11.45
2022-08-29T04:10:24.575Z,11.98
2022-08-29T04:12:54.723Z,13.07
2022-08-29T04:15:23.140Z,11.35
2022-08-29T04:17:55.375Z,10.30
2022-08-29T04:20:25.727Z,10.80
2022-08-29T04:22:54.827Z,10.95
2022-08-29T04:25:23.666Z,12.48
2022-08-29T04:27:50.614Z,10.90
2022-08-29T04:30:19.989Z,10.38
2022-08-29T04:32:47.436Z,10.23
2022-08-29T04:35:16.150Z,9.38
2022-08-29T04:37:43.825Z,9.52
2022-08-29T04:40:15.110Z,9.93
2022-08-29T04:42:42.083Z,9.85
2022-08-29T04:45:14.600Z,11.77
2022-08-29T04:47:42.718Z,12.00
2022-08-29T04:50:13.064Z,10.68
2022-08-29T04:52:40.335Z,12.02
2022-08-29T04:55:08.156Z,8.98
2022-08-29T04:57:36.652Z,9.82
2022-08-29T05:00:07.213Z,10.43
2022-08-29T05:02:33.905Z,10.05
2022-08-29T05:05:00.760Z,9.45
2022-08-29T05:07:27.809Z,9.90
2022-08-29T05:10:01.019Z,9.93
2022-08-29T05:12:29.587Z,9.13
2022-08-29T05:14:56.977Z,9.50
2022-08-29T05:17:24.514Z,10.90
2022-08-29T05:19:51.284Z,8.90
2022-08-29T05:22:19.877Z,10.02
2022-08-29T05:24:48.128Z,9.68
2022-08-29T05:27:20.792Z,8.68
2022-08-29T05:29:49.518Z,7.80
2022-08-29T05:32:17.581Z,7.80
2022-08-29T05:34:45.467Z,7.82
2022-08-29T05:37:15.057Z,8.25
2022-08-29T05:39:42.722Z,8.30
2022-08-29T05:42:11.688Z,8.52
2022-08-29T05:44:40.339Z,9.02
2022-08-29T05:47:11.390Z,7.70
2022-08-29T05:49:40.215Z,6.00
2022-08-29T05:52:08.230Z,5.10
2022-08-29T05:54:37.203Z,5.60
2022-08-29T05:57:05.618Z,5.32
2022-08-29T05:59:32.345Z,5.30
2022-08-29T06:01:59.137Z,5.47
2022-08-29T06:04:26.153Z,6.15
2022-08-29T06:06:52.855Z,5.70
2022-08-29T06:09:19.570Z,5.72
2022-08-29T06:11:49.238Z,6.47
2022-08-29T06:14:17.025Z,5.78
2022-08-29T06:16:43.843Z,6.47
2022-08-29T06:19:10.751Z,6.20
2022-08-29T06:21:56.586Z,5.78
2022-08-29T06:24:23.415Z,5.75
2022-08-29T06:26:50.081Z,6.55
2022-08-29T06:29:16.793Z,5.85
2022-08-29T06:31:43.622Z,6.63
2022-08-29T06:34:10.322Z,5.75
2022-08-29T06:36:37.324Z,6.18
2022-08-29T06:39:07.952Z,6.50
2022-08-29T06:41:36.023Z,5.63
2022-08-29T06:44:04.059Z,5.88
2022-08-29T06:46:37.439Z,6.05
2022-08-29T06:49:07.200Z,5.00
2022-08-29T06:51:37.180Z,6.75
2022-08-29T06:54:07.199Z,5.55
2022-08-29T06:56:37.212Z,6.28
2022-08-29T06:59:04.821Z,5.63
2022-08-29T07:01:31.626Z,5.32
2022-08-29T07:04:00.678Z,5.45
2022-08-29T07:06:28.354Z,5.10
2022-08-29T07:08:56.729Z,5.43
2022-08-29T07:11:26.254Z,5.28
2022-08-29T07:13:53.146Z,5.20
2022-08-29T07:16:20.056Z,5.28
2022-08-29T07:18:47.602Z,4.97
2022-08-29T07:21:20.892Z,4.65
2022-08-29T07:23:48.954Z,5.05
2022-08-29T07:26:17.810Z,4.13
2022-08-29T07:28:47.439Z,4.68
2022-08-29T07:31:14.748Z,4.60
2022-08-29T07:33:41.908Z,5.88
2022-08-29T07:36:09.536Z,6.40
2022-08-29T07:38:36.841Z,5.45
2022-08-29T07:41:09.625Z,5.60
2022-08-29T07:43:37.185Z,5.80
2022-08-29T07:46:09.289Z,5.13
2022-08-29T07:48:36.420Z,4.35
2022-08-29T07:51:10.363Z,4.43
2022-08-29T07:53:38.454Z,4.25
2022-08-29T07:56:10.663Z,3.88
2022-08-29T07:58:38.655Z,3.55
2022-08-29T08:01:06.135Z,4.20
2022-08-29T08:03:34.357Z,3.95
2022-08-29T08:06:07.007Z,4.45
2022-08-29T08:08:34.198Z,4.38
2022-08-29T08:11:04.541Z,4.57
2022-08-29T08:13:31.898Z,4.45
2022-08-29T08:15:58.810Z,4.50
2022-08-29T08:18:25.835Z,3.83
2022-08-29T08:20:52.557Z,4.05
2022-08-29T08:23:19.951Z,3.95
2022-08-29T08:25:46.830Z,4.15
2022-08-29T08:28:14.468Z,4.10
2022-08-29T08:30:41.646Z,4.10
2022-08-29T08:33:08.645Z,4.10
2022-08-29T08:35:37.255Z,5.10
2022-08-29T08:38:05.733Z,4.40
2022-08-29T08:40:33.269Z,4.25
2022-08-29T08:43:02.203Z,4.35
2022-08-29T08:45:42.268Z,4.40
2022-08-29T08:48:12.806Z,4.82
2022-08-29T08:50:54.835Z,5.35
2022-08-29T08:53:34.593Z,5.10
2022-08-29T08:56:06.171Z,4.75
2022-08-29T08:58:36.910Z,5.93
2022-08-29T09:01:21.163Z,5.78
2022-08-29T09:03:56.868Z,5.53
2022-08-29T09:06:41.363Z,4.97
2022-08-29T09:09:24.328Z,5.80
2022-08-29T09:12:20.323Z,5.72
2022-08-29T09:15:14.901Z,7.22
2022-08-29T09:17:55.722Z,7.70
2022-08-29T09:20:26.088Z,6.22
2022-08-29T09:23:15.865Z,6.10
2022-08-29T09:25:42.735Z,5.60
2022-08-29T09:28:09.953Z,5.90
2022-08-29T09:30:39.431Z,6.75
2022-08-29T09:33:17.102Z,6.07
2022-08-29T09:35:52.531Z,7.43
2022-08-29T09:38:24.053Z,6.70
2022-08-29T09:41:00.863Z,5.82
2022-08-29T09:43:47.510Z,6.88
2022-08-29T09:46:26.143Z,6.28
2022-08-29T09:49:14.011Z,6.60
2022-08-29T09:51:45.153Z,6.53
2022-08-29T09:54:31.482Z,6.53
2022-08-29T09:57:04.133Z,5.95
2022-08-29T09:59:37.780Z,5.85
2022-08-29T10:02:26.945Z,7.22
2022-08-29T10:04:53.853Z,6.30
2022-08-29T10:07:30.026Z,5.97
2022-08-29T10:10:13.603Z,6.32
2022-08-29T10:13:01.352Z,6.57
2022-08-29T10:15:50.453Z,6.65
2022-08-29T10:18:36.365Z,8.20
2022-08-29T10:21:19.273Z,7.03
2022-08-29T10:24:04.903Z,7.82
2022-08-29T10:27:07.155Z,7.28
2022-08-29T10:29:39.274Z,7.30
2022-08-29T10:32:23.571Z,7.47
2022-08-29T10:35:09.065Z,6.50
2022-08-29T10:37:57.327Z,6.60
2022-08-29T10:40:26.819Z,6.50
2022-08-29T10:43:23.199Z,6.72
2022-08-29T10:45:52.927Z,6.88
2022-08-29T10:48:24.712Z,6.55
2022-08-29T10:50:58.670Z,6.57
2022-08-29T10:53:33.881Z,7.35
2022-08-29T10:56:22.968Z,7.90
2022-08-29T10:59:25.533Z,8.38
2022-08-29T11:01:54.950Z,7.40
2022-08-29T11:04:21.501Z,6.65
2022-08-29T11:07:01.520Z,7.28
2022-08-29T11:09:33.975Z,6.47
2022-08-29T11:12:08.255Z,7.18
2022-08-29T11:14:49.105Z,6.60
2022-08-29T11:17:19.065Z,6.65
2022-08-29T11:20:03.743Z,6.07
2022-08-29T11:22:55.153Z,6.10
2022-08-29T11:25:22.394Z,5.43
2022-08-29T11:28:07.365Z,5.53
2022-08-29T11:30:55.924Z,6.82
2022-08-29T11:33:41.463Z,6.25
2022-08-29T11:36:46.102Z,5.15
2022-08-29T11:39:51.188Z,5.70
2022-08-29T11:45:13.341Z,5.00
2022-08-29T11:47:46.242Z,4.75
2022-08-29T11:50:28.311Z,4.28
2022-08-29T11:53:07.026Z,4.40
2022-08-29T11:55:36.098Z,2.88
2022-08-29T11:58:15.902Z,3.90
2022-08-29T12:00:47.599Z,4.18
2022-08-29T12:03:33.326Z,4.38
2022-08-29T12:06:30.762Z,3.08
2022-08-29T12:09:13.426Z,3.80
2022-08-29T12:11:59.241Z,2.80
2022-08-29T12:14:46.985Z,2.72
2022-08-29T12:17:16.689Z,2.92
2022-08-29T12:19:52.070Z,3.92
2022-08-29T12:22:52.624Z,2.63
2022-08-29T12:25:28.376Z,2.97
2022-08-29T12:27:58.178Z,3.15
2022-08-29T12:30:25.078Z,3.00
2022-08-29T12:33:02.603Z,2.70
2022-08-29T12:36:01.004Z,2.97
2022-08-29T12:39:04.479Z,3.00
2022-08-29T12:41:48.335Z,3.90
2022-08-29T12:44:19.177Z,3.28
2022-08-29T12:47:01.240Z,3.40
2022-08-29T12:49:36.123Z,3.53
2022-08-29T12:52:07.420Z,3.63
2022-08-29T12:54:41.543Z,3.75
2022-08-29T12:57:23.980Z,3.50
2022-08-29T12:59:53.475Z,3.80
2022-08-29T13:02:30.771Z,4.03
2022-08-29T13:04:58.147Z,4.55
2022-08-29T13:07:26.618Z,4.18
2022-08-29T13:09:59.256Z,4.70
2022-08-29T13:12:32.358Z,5.25
2022-08-29T13:15:06.993Z,5.07
2022-08-29T13:17:40.285Z,5.22
2022-08-29T13:20:38.401Z,4.15
2022-08-29T13:23:26.775Z,3.92
2022-08-29T13:26:05.767Z,3.08
2022-08-29T13:28:35.711Z,2.90
2022-08-29T13:31:27.158Z,2.55
2022-08-29T13:33:56.791Z,2.88
2022-08-29T13:36:41.987Z,3.05
2022-08-29T13:39:25.501Z,2.70
2022-08-29T13:41:58.084Z,2.92
2022-08-29T13:44:38.809Z,2.33
2022-08-29T13:47:23.517Z,2.38
2022-08-29T13:49:56.307Z,3.17
2022-08-29T13:52:23.239Z,2.95
2022-08-29T13:54:52.799Z,3.55
2022-08-29T13:57:22.957Z,4.40
2022-08-29T13:59:49.851Z,3.60
2022-08-29T14:02:17.888Z,4.70
2022-08-29T14:04:49.334Z,4.68
2022-08-29T14:07:24.527Z,5.20
2022-08-29T14:09:51.891Z,5.10
2022-08-29T14:12:19.334Z,5.93
2022-08-29T14:14:48.208Z,5.65
2022-08-29T14:17:18.212Z,5.63
2022-08-29T14:19:46.468Z,7.03
2022-08-29T14:22:13.657Z,6.70
2022-08-29T14:24:41.335Z,6.47
2022-08-29T14:27:09.338Z,7.25
2022-08-29T14:29:37.096Z,8.40
2022-08-29T14:32:04.043Z,7.55
2022-08-29T14:34:32.508Z,7.72
2022-08-29T14:37:00.573Z,7.85
2022-08-29T14:39:27.835Z,7.60
2022-08-29T14:41:55.238Z,7.60
2022-08-29T14:44:23.638Z,6.53
2022-08-29T14:46:51.711Z,7.50
2022-08-29T14:49:19.392Z,8.35
2022-08-29T14:51:48.897Z,6.78
2022-08-29T14:54:18.075Z,6.32
2022-08-29T14:56:50.179Z,6.10
2022-08-29T14:59:22.020Z,6.22
2022-08-29T15:01:54.303Z,5.45
2022-08-29T15:04:35.095Z,5.63
2022-08-29T15:07:05.980Z,6.57
2022-08-29T15:09:33.062Z,6.60
2022-08-29T15:11:59.861Z,7.03
2022-08-29T15:14:26.609Z,7.85
2022-08-29T15:16:53.350Z,7.75
2022-08-29T15:22:09.101Z,8.35
2022-08-29T15:24:36.406Z,8.27
2022-08-29T15:27:04.225Z,8.52
2022-08-29T15:29:31.607Z,8.25
2022-08-29T15:31:58.327Z,10.75
2022-08-29T15:34:26.110Z,10.55
2022-08-29T15:36:54.363Z,11.75
2022-08-29T15:39:21.876Z,12.63
2022-08-29T15:41:48.656Z,9.93
2022-08-29T15:44:15.271Z,9.85
2022-08-29T15:46:43.261Z,10.82
2022-08-29T15:49:18.703Z,11.02
2022-08-29T15:51:45.509Z,13.82
2022-08-29T15:54:12.237Z,12.77
2022-08-29T15:56:39.515Z,15.75
2022-08-29T15:59:09.078Z,15.82
2022-08-29T16:01:49.818Z,15.77
2022-08-29T16:04:18.545Z,18.65
2022-08-29T16:06:45.709Z,19.63
2022-08-29T16:09:15.560Z,20.25
2022-08-29T16:11:47.763Z,23.15
2022-08-29T16:17:03.951Z,22.77
2022-08-29T16:19:30.962Z,22.38
2022-08-29T16:22:00.929Z,22.98
2022-08-29T16:24:29.613Z,23.75
2022-08-29T16:26:56.327Z,23.73
2022-08-29T16:29:26.605Z,22.63
2022-08-29T16:31:57.953Z,20.75
2022-08-29T16:34:26.358Z,21.45
2022-08-29T16:37:00.732Z,21.48
2022-08-29T16:39:28.331Z,21.38
2022-08-29T16:41:55.119Z,19.95
2022-08-29T16:44:22.282Z,19.85
2022-08-29T16:46:49.111Z,19.45
2022-08-29T16:49:15.955Z,18.77
2022-08-29T16:51:42.831Z,16.35
2022-08-29T16:54:09.763Z,17.30
2022-08-29T16:56:39.874Z,17.73
2022-08-29T16:59:06.912Z,17.13
2022-08-29T17:01:38.270Z,16.75
2022-08-29T17:04:10.738Z,17.23
2022-08-29T17:06:39.982Z,18.02
2022-08-29T17:09:08.910Z,18.45
2022-08-29T17:11:36.750Z,18.08
2022-08-29T17:14:03.858Z,17.80
2022-08-29T17:16:31.278Z,19.27
2022-08-29T17:18:58.091Z,19.25
2022-08-29T17:21:25.950Z,18.73
2022-08-29T17:23:53.285Z,17.90
2022-08-29T17:26:20.035Z,19.85
2022-08-29T17:28:48.296Z,19.77
2022-08-29T17:31:15.884Z,20.02
2022-08-29T17:33:44.074Z,18.40
2022-08-29T17:36:11.395Z,18.27
2022-08-29T17:38:45.114Z,18.05
2022-08-29T17:41:17.424Z,20.58
2022-08-29T17:43:45.636Z,16.83
2022-08-29T17:46:12.670Z,16.35
2022-08-29T17:48:40.272Z,16.90
2022-08-29T17:51:07.276Z,19.70
2022-08-29T17:53:35.059Z,18.83
2022-08-29T17:56:21.206Z,16.15
2022-08-29T17:58:48.483Z,15.80
2022-08-29T18:01:16.937Z,16.75
2022-08-29T18:03:45.185Z,13.20
2022-08-29T18:06:14.688Z,13.18
2022-08-29T18:08:48.242Z,12.15
2022-08-29T18:11:16.200Z,12.27
2022-08-29T18:13:43.298Z,12.80
2022-08-29T18:16:10.653Z,11.38
2022-08-29T18:18:38.750Z,12.73
2022-08-29T18:21:05.735Z,11.23
2022-08-29T18:23:33.404Z,11.75
2022-08-29T18:26:00.838Z,12.38
2022-08-29T18:28:27.944Z,12.70
2022-08-29T18:30:55.060Z,17.48
2022-08-29T18:33:22.338Z,16.30
2022-08-29T18:35:49.364Z,16.00
2022-08-29T18:38:16.688Z,16.40
2022-08-29T18:40:44.737Z,17.30
2022-08-29T18:43:13.132Z,13.52
2022-08-29T18:45:41.334Z,14.25
2022-08-29T18:48:08.327Z,13.27
2022-08-29T18:50:35.292Z,13.43
2022-08-29T18:53:17.698Z,10.15
2022-08-29T18:55:51.156Z,10.70
2022-08-29T18:58:24.592Z,9.77
2022-08-29T19:00:51.574Z,11.07
2022-08-29T19:03:19.480Z,10.77
2022-08-29T19:05:49.707Z,10.77
2022-08-29T19:08:18.232Z,13.23
2022-08-29T19:10:47.376Z,12.13
2022-08-29T19:13:16.156Z,12.75
2022-08-29T19:15:45.332Z,13.65
2022-08-29T19:18:12.186Z,11.18
2022-08-29T19:20:59.573Z,12.65
2022-08-29T19:23:26.939Z,11.85
2022-08-29T19:25:54.002Z,11.80
2022-08-29T19:28:21.347Z,11.35
2022-08-29T19:30:49.673Z,10.82
2022-08-29T19:33:17.974Z,10.00
2022-08-29T19:35:46.244Z,9.43
2022-08-29T19:38:13.011Z,9.32
2022-08-29T19:40:40.909Z,8.75
2022-08-29T19:43:10.441Z,9.63
2022-08-29T19:45:42.793Z,9.10
2022-08-29T19:48:10.735Z,8.40
2022-08-29T19:50:42.301Z,8.52
2022-08-29T19:53:10.120Z,8.73
2022-08-29T19:55:40.599Z,8.40
2022-08-29T19:58:08.040Z,10.43
2022-08-29T20:00:35.496Z,11.35
2022-08-29T20:03:02.256Z,10.20
2022-08-29T20:05:28.982Z,10.75
2022-08-29T20:07:55.822Z,10.20
2022-08-29T20:10:25.539Z,10.10
2022-08-29T20:12:54.993Z,10.32
2022-08-29T20:15:30.400Z,9.98
2022-08-29T20:17:59.018Z,8.88
2022-08-29T20:20:31.353Z,9.23
2022-08-29T20:22:58.110Z,9.88
2022-08-29T20:25:25.629Z,9.35
2022-08-29T20:27:53.239Z,9.82
2022-08-29T20:30:24.203Z,9.20
2022-08-29T20:32:51.848Z,9.35
2022-08-29T20:35:38.880Z,10.05
2022-08-29T20:38:06.232Z,10.05
2022-08-29T20:40:33.124Z,10.13
2022-08-29T20:42:59.990Z,12.23
2022-08-29T20:45:26.841Z,11.23
2022-08-29T20:47:53.545Z,10.02
2022-08-29T20:50:20.674Z,8.60
2022-08-29T20:52:47.491Z,8.43
2022-08-29T20:55:14.482Z,9.40
2022-08-29T20:57:41.384Z,9.45
2022-08-29T21:00:09.479Z,9.52
2022-08-29T21:02:54.784Z,9.63
2022-08-29T21:05:42.863Z,9.32
2022-08-29T21:08:16.384Z,10.18
2022-08-29T21:10:44.872Z,8.88
2022-08-29T21:13:12.363Z,8.25
2022-08-29T21:15:41.175Z,7.68
2022-08-29T21:18:09.907Z,8.13
2022-08-29T21:20:54.259Z,8.27
2022-08-29T21:23:24.286Z,8.93
2022-08-29T21:25:55.923Z,8.30
2022-08-29T21:28:24.968Z,7.80
2022-08-29T21:30:52.138Z,8.18
2022-08-29T21:33:20.118Z,8.15
2022-08-29T21:35:47.106Z,8.77
2022-08-29T21:38:17.597Z,8.52
2022-08-29T21:40:50.615Z,8.68
2022-08-29T21:43:19.403Z,8.90
2022-08-29T21:45:46.245Z,8.95
2022-08-29T21:48:13.210Z,9.43
2022-08-29T21:50:39.820Z,9.75
2022-08-29T21:53:06.434Z,9.18
2022-08-29T21:55:33.290Z,10.05
2022-08-29T21:58:01.132Z,10.75
2022-08-29T22:00:33.735Z,11.02
2022-08-29T22:03:02.762Z,10.80
2022-08-29T22:05:31.519Z,10.18
2022-08-29T22:07:59.061Z,11.70
2022-08-29T22:10:29.018Z,11.80
2022-08-29T22:12:55.654Z,11.43
2022-08-29T22:15:40.977Z,10.80
2022-08-29T22:18:09.235Z,11.52
2022-08-29T22:20:37.629Z,11.20
2022-08-29T22:23:06.031Z,12.00
2022-08-29T22:25:32.951Z,12.65
2022-08-29T22:27:59.735Z,12.15
2022-08-29T22:30:32.138Z,12.02
2022-08-29T22:33:00.187Z,11.90
2022-08-29T22:35:27.907Z,11.55
2022-08-29T22:37:54.673Z,11.52
2022-08-29T22:40:21.682Z,11.20
2022-08-29T22:42:48.348Z,9.43
2022-08-29T22:45:16.568Z,10.43
2022-08-29T22:47:45.068Z,11.40
2022-08-29T22:50:21.663Z,9.90
2022-08-29T22:52:49.425Z,10.00
2022-08-29T22:57:47.490Z,10.13
2022-08-29T23:00:19.232Z,10.27
2022-08-29T23:02:46.637Z,9.68
2022-08-29T23:05:13.790Z,10.35
2022-08-29T23:07:40.624Z,10.05
2022-08-29T23:10:08.839Z,10.45
2022-08-29T23:12:38.805Z,10.48
2022-08-29T23:15:08.544Z,10.35
2022-08-29T23:17:35.285Z,11.07
2022-08-29T23:20:02.130Z,9.95
2022-08-29T23:22:29.233Z,9.52
2022-08-29T23:24:58.796Z,9.15
2022-08-29T23:27:30.414Z,9.63
2022-08-29T23:29:58.653Z,10.48
2022-08-29T23:32:25.762Z,9.35
2022-08-29T23:34:52.730Z,9.73
2022-08-29T23:37:19.499Z,8.57
2022-08-29T23:39:46.863Z,8.95
2022-08-29T23:42:13.627Z,8.98
2022-08-29T23:44:40.381Z,9.60
2022-08-29T23:47:08.347Z,8.57
2022-08-29T23:49:35.320Z,9.02
2022-08-29T23:52:02.776Z,9.48
2022-08-29T23:54:31.620Z,9.43
2022-08-29T23:56:58.352Z,9.23
2022-08-29T23:59:43.613Z,9.70
